Main page
METAR-TAF:

METAR-TAF

Airports :

Novosibirsk, Russia

Tolmachevo Airport

latitude: 55-01N, longitude: 082-38E, elevation: 111 m

Current weather observation

The report was made 27 minutes ago, at 14:00 UTC
Wind 6 kt from the North/Northeast
Temperature -35°C
Humidity 66%
Pressure 1050 hPa
Visibility 10 km or more
no clouds below 1500 m and no cumulonimbus

METAR: UNNT 211400Z 02003MPS CAVOK M35/M39 Q1050 R07/820155 R34/820155 NOSIG RMK QFE777/1036

Time: 21:27 (14:27 UTC)

Forecast

The report was made 3 hours and 27 minutes ago, at 11:00 UTC
Forecast valid from 21 at 12 UTC to 22 at 12 UTC
Wind 10 kt from the North/Northeast with gusts up to 19 kt
Visibility 10 km or more
no clouds below 1500 m and no cumulonimbus
Temporary
from 21 at 12 UTC to 22 at 06 UTC
Wind 6 kt from the North
Visibility: 3000 m
Scattered clouds at a height of 500 ft
smoke, mist

TAF: UNNT 211100Z 2112/2212 03005G10MPS CAVOK TEMPO 2112/2206 35003MPS 3000 FU BR SCT005

Weather observations and forecasts of more than 4000 airports (METAR and TAF reports).

The available stations are represented by yellow and red dots on the map.

Hover mouse over dot to see the name of the station.

Then click to see weather observations and forecasts.

To change the map : click on the green buttons with a black cross to zoom in, on the green button with a dash to zoom out, or on the green arrows for adjacent maps.


METAR-TAF: